createdAt,value
2019-06-20T00:00:50.219Z,99.90
2019-06-20T00:03:19.135Z,99.90
2019-06-20T00:05:48.018Z,99.90
2019-06-20T00:08:16.944Z,99.90
2019-06-20T00:10:45.786Z,99.90
2019-06-20T00:13:14.698Z,99.90
2019-06-20T00:15:43.563Z,99.90
2019-06-20T00:18:12.432Z,99.90
2019-06-20T00:20:41.261Z,99.90
2019-06-20T00:23:10.045Z,99.90
2019-06-20T00:25:38.912Z,99.90
2019-06-20T00:28:07.837Z,99.90
2019-06-20T00:30:36.775Z,99.90
2019-06-20T00:33:05.787Z,99.90
2019-06-20T00:35:34.760Z,99.90
2019-06-20T00:38:03.623Z,99.90
2019-06-20T00:40:32.554Z,99.90
2019-06-20T00:43:16.262Z,99.90
2019-06-20T00:45:32.030Z,99.90
2019-06-20T00:48:00.827Z,99.90
2019-06-20T00:50:29.789Z,99.90
2019-06-20T00:52:58.810Z,99.90
2019-06-20T00:55:27.654Z,99.90
2019-06-20T00:57:56.538Z,99.90
2019-06-20T01:00:25.451Z,99.90
2019-06-20T01:02:54.241Z,99.90
2019-06-20T01:05:23.426Z,99.90
2019-06-20T01:07:52.675Z,99.90
2019-06-20T01:10:21.657Z,99.90
2019-06-20T01:12:50.574Z,99.90
2019-06-20T01:15:19.807Z,99.90
2019-06-20T01:17:48.566Z,99.90
2019-06-20T01:20:18.186Z,99.90
2019-06-20T01:22:47.051Z,99.90
2019-06-20T01:25:17.427Z,99.90
2019-06-20T01:27:46.243Z,99.90
2019-06-20T01:30:15.716Z,99.90
2019-06-20T01:32:44.512Z,99.90
2019-06-20T01:35:13.570Z,99.90
2019-06-20T01:37:42.446Z,99.90
2019-06-20T01:40:11.367Z,99.90
2019-06-20T01:42:40.692Z,99.90
2019-06-20T01:45:09.719Z,99.90
2019-06-20T01:47:38.522Z,99.90
2019-06-20T01:50:07.819Z,99.90
2019-06-20T01:52:36.666Z,99.90
2019-06-20T01:55:06.122Z,99.90
2019-06-20T01:57:34.938Z,99.90
2019-06-20T02:00:05.473Z,99.90
2019-06-20T02:02:34.226Z,99.90
2019-06-20T02:05:03.107Z,99.90
2019-06-20T02:07:31.900Z,99.90
2019-06-20T02:10:00.767Z,99.90
2019-06-20T02:12:29.584Z,99.90
2019-06-20T02:14:58.522Z,99.90
2019-06-20T02:17:27.360Z,99.90
2019-06-20T02:19:56.159Z,99.90
2019-06-20T02:22:24.935Z,99.90
2019-06-20T02:24:53.702Z,99.90
2019-06-20T02:27:22.732Z,99.90
2019-06-20T02:29:51.755Z,99.90
2019-06-20T02:32:20.594Z,99.90
2019-06-20T02:34:49.465Z,99.90
2019-06-20T02:37:18.219Z,99.90
2019-06-20T02:39:47.001Z,99.90
2019-06-20T02:42:16.423Z,99.90
2019-06-20T02:44:45.220Z,99.90
2019-06-20T02:47:14.070Z,99.90
2019-06-20T02:49:43.127Z,99.90
2019-06-20T02:52:12.074Z,99.90
2019-06-20T02:54:40.843Z,99.90
2019-06-20T02:57:09.672Z,99.90
2019-06-20T02:59:38.531Z,99.90
2019-06-20T03:02:07.415Z,99.90
2019-06-20T03:04:36.294Z,99.90
2019-06-20T03:07:05.150Z,99.90
2019-06-20T03:09:33.927Z,99.90
2019-06-20T03:12:02.768Z,99.90
2019-06-20T03:14:44.608Z,99.90
2019-06-20T03:17:02.481Z,99.90
2019-06-20T03:19:31.273Z,99.90
2019-06-20T03:22:00.046Z,99.90
2019-06-20T03:24:28.822Z,99.90
2019-06-20T03:26:57.716Z,99.90
2019-06-20T03:29:26.606Z,99.90
2019-06-20T03:31:55.376Z,99.90
2019-06-20T03:34:25.407Z,99.90
2019-06-20T03:36:54.202Z,99.90
2019-06-20T03:39:22.990Z,99.90
2019-06-20T03:41:51.911Z,99.90
2019-06-20T03:44:20.775Z,99.90
2019-06-20T03:46:49.603Z,99.90
2019-06-20T03:49:18.448Z,99.90
2019-06-20T03:51:47.336Z,99.90
2019-06-20T03:54:16.132Z,99.90
2019-06-20T03:56:45.003Z,99.90
2019-06-20T03:59:14.026Z,99.90
2019-06-20T04:01:43.114Z,99.90
2019-06-20T04:04:11.903Z,99.90
2019-06-20T04:06:40.741Z,99.90
2019-06-20T04:09:09.535Z,99.90
2019-06-20T04:11:38.717Z,99.90
2019-06-20T04:14:07.551Z,99.90
2019-06-20T04:16:36.426Z,99.90
2019-06-20T04:19:05.304Z,99.90
2019-06-20T04:21:34.091Z,99.90
2019-06-20T04:24:02.851Z,99.90
2019-06-20T04:26:31.644Z,99.90
2019-06-20T04:29:00.592Z,99.90
2019-06-20T04:31:29.371Z,99.90
2019-06-20T04:33:58.175Z,99.90
2019-06-20T04:36:28.170Z,99.90
2019-06-20T04:38:57.202Z,99.90
2019-06-20T04:41:26.023Z,99.90
2019-06-20T04:43:54.795Z,99.90
2019-06-20T04:46:29.442Z,99.90
2019-06-20T04:48:58.198Z,99.90
2019-06-20T04:51:26.952Z,99.90
2019-06-20T04:53:55.898Z,99.90
2019-06-20T04:56:24.670Z,99.90
2019-06-20T04:58:53.473Z,99.90
2019-06-20T05:01:22.280Z,99.90
2019-06-20T05:03:51.032Z,99.90
2019-06-20T05:06:20.055Z,99.90
2019-06-20T05:08:48.935Z,99.90
2019-06-20T05:11:17.763Z,99.90
2019-06-20T05:13:46.527Z,99.90
2019-06-20T05:16:15.316Z,99.90
2019-06-20T05:18:44.201Z,99.90
2019-06-20T05:21:13.044Z,99.90
2019-06-20T05:23:41.914Z,99.90
2019-06-20T05:26:10.747Z,99.90
2019-06-20T05:28:39.530Z,99.90
2019-06-20T05:31:08.418Z,99.90
2019-06-20T05:33:37.219Z,99.90
2019-06-20T05:36:06.308Z,99.90
2019-06-20T05:38:36.017Z,99.90
2019-06-20T05:41:05.016Z,99.90
2019-06-20T05:43:33.786Z,99.90
2019-06-20T05:46:09.466Z,99.90
2019-06-20T05:48:33.234Z,99.90
2019-06-20T05:51:02.043Z,99.90
2019-06-20T05:53:31.122Z,99.90
2019-06-20T05:55:59.905Z,99.90
2019-06-20T05:58:28.706Z,99.90
2019-06-20T06:00:57.789Z,99.90
2019-06-20T06:03:26.551Z,99.90
2019-06-20T06:05:55.395Z,99.90
2019-06-20T06:08:24.214Z,99.90
2019-06-20T06:10:53.836Z,99.90
2019-06-20T06:13:22.660Z,99.90
2019-06-20T06:15:51.468Z,99.90
2019-06-20T07:20:31.081Z,99.90
2019-06-20T07:22:59.978Z,99.90
2019-06-20T07:25:29.056Z,99.90
2019-06-20T07:27:57.877Z,99.90
2019-06-20T07:30:26.690Z,99.90
2019-06-20T07:32:55.558Z,99.90
2019-06-20T07:35:24.507Z,99.90
2019-06-20T07:37:53.320Z,99.90
2019-06-20T07:40:22.642Z,99.90
2019-06-20T07:42:51.877Z,99.90
2019-06-20T07:45:27.282Z,99.90
2019-06-20T07:47:56.114Z,99.90
2019-06-20T07:50:25.051Z,99.90
2019-06-20T07:53:02.115Z,99.90
2019-06-20T07:55:24.595Z,99.90
2019-06-20T07:57:53.427Z,99.90
2019-06-20T08:00:23.234Z,99.90
2019-06-20T08:02:52.108Z,99.90
2019-06-20T08:05:22.066Z,99.90
2019-06-20T08:07:50.936Z,99.90
2019-06-20T08:10:20.408Z,99.90
2019-06-20T08:12:49.190Z,99.90
2019-06-20T08:15:18.515Z,99.90
2019-06-20T08:17:47.391Z,99.90
2019-06-20T08:20:16.730Z,99.90
2019-06-20T08:22:48.258Z,99.90
2019-06-20T08:25:17.518Z,99.90
2019-06-20T08:27:49.472Z,99.90
2019-06-20T08:30:23.171Z,99.90
2019-06-20T08:32:52.330Z,99.90
2019-06-20T08:35:23.630Z,99.90
2019-06-20T08:37:53.010Z,99.90
2019-06-20T08:40:22.647Z,99.90
2019-06-20T08:42:51.510Z,99.90
2019-06-20T08:45:22.298Z,99.90
2019-06-20T08:47:51.096Z,99.90
2019-06-20T08:50:20.056Z,99.90
2019-06-20T08:52:48.907Z,99.90
2019-06-20T08:55:18.034Z,99.90
2019-06-20T08:57:46.919Z,99.90
2019-06-20T09:00:16.776Z,99.90
2019-06-20T09:02:45.607Z,99.90
2019-06-20T09:05:15.462Z,99.90
2019-06-20T09:07:44.770Z,99.90
2019-06-20T09:10:14.515Z,99.90
2019-06-20T09:12:43.765Z,99.90
2019-06-20T09:15:12.978Z,99.90
2019-06-20T09:17:41.771Z,99.90
2019-06-20T09:20:12.530Z,99.90
2019-06-20T09:22:41.442Z,99.90
2019-06-20T09:25:10.715Z,99.90
2019-06-20T09:27:39.740Z,99.90
2019-06-20T09:30:09.495Z,99.90
2019-06-20T09:32:38.422Z,99.90
2019-06-20T09:35:07.590Z,99.90
2019-06-20T09:37:36.562Z,99.90
2019-06-20T09:40:06.654Z,99.90
2019-06-20T09:42:36.891Z,99.90
2019-06-20T09:45:06.356Z,99.90
2019-06-20T09:47:35.149Z,99.90
2019-06-20T09:50:05.888Z,99.90
2019-06-20T09:52:34.734Z,99.90
2019-06-20T09:55:04.558Z,99.90
2019-06-20T09:57:33.798Z,99.90
2019-06-20T10:00:10.073Z,99.90
2019-06-20T10:02:33.639Z,99.90
2019-06-20T10:05:02.462Z,99.90
2019-06-20T10:07:31.238Z,99.90
2019-06-20T10:10:00.471Z,99.90
2019-06-20T10:12:29.369Z,99.00
2019-06-20T10:14:58.173Z,98.70
2019-06-20T10:17:27.304Z,98.30
2019-06-20T10:19:56.368Z,99.20
2019-06-20T10:22:25.642Z,98.30
2019-06-20T10:24:54.410Z,94.40
2019-06-20T10:27:23.222Z,95.20
2019-06-20T10:29:53.499Z,94.40
2019-06-20T10:32:22.458Z,92.60
2019-06-20T10:34:52.637Z,86.20
2019-06-20T10:37:21.658Z,82.80
2019-06-20T10:39:52.015Z,73.90
2019-06-20T10:42:21.290Z,71.80
2019-06-20T10:44:50.123Z,66.60
2019-06-20T10:47:31.623Z,62.60
2019-06-20T10:49:50.393Z,63.10
2019-06-20T10:52:19.409Z,58.50
2019-06-20T10:54:49.301Z,57.20
2019-06-20T10:57:18.312Z,53.40
2019-06-20T10:59:48.427Z,53.80
2019-06-20T11:02:17.324Z,56.70
2019-06-20T11:04:46.092Z,53.80
2019-06-20T11:07:14.891Z,53.30
2019-06-20T11:09:45.138Z,49.40
2019-06-20T11:12:14.070Z,46.50
2019-06-20T11:14:44.068Z,46.30
2019-06-20T11:17:13.103Z,44.70
2019-06-20T11:19:41.974Z,40.70
2019-06-20T11:22:10.875Z,39.60
2019-06-20T11:24:40.848Z,39.10
2019-06-20T11:27:09.735Z,43.80
2019-06-20T11:29:38.843Z,48.40
2019-06-20T11:32:07.694Z,51.90
2019-06-20T11:34:37.677Z,53.60
2019-06-20T11:37:07.139Z,56.10
2019-06-20T11:39:37.306Z,58.80
2019-06-20T11:42:06.229Z,59.00
2019-06-20T11:44:36.720Z,60.60
2019-06-20T11:47:05.785Z,61.20
2019-06-20T11:49:36.099Z,59.60
2019-06-20T11:52:05.407Z,58.00
2019-06-20T11:54:34.494Z,58.40
2019-06-20T11:57:03.975Z,57.70
2019-06-20T11:59:32.822Z,54.20
2019-06-20T12:02:01.660Z,53.60
2019-06-20T12:04:30.418Z,50.20
2019-06-20T12:06:59.412Z,47.40
2019-06-20T12:09:28.282Z,46.60
2019-06-20T12:11:57.470Z,47.60
2019-06-20T12:14:26.274Z,47.40
2019-06-20T12:16:55.133Z,47.90
2019-06-20T12:19:23.950Z,46.60
2019-06-20T12:21:52.889Z,47.40
2019-06-20T12:24:21.838Z,48.30
2019-06-20T12:26:50.718Z,48.20
2019-06-20T12:29:19.675Z,47.60
2019-06-20T12:31:48.576Z,47.20
2019-06-20T12:34:17.405Z,46.10
2019-06-20T12:36:46.654Z,44.60
2019-06-20T12:39:15.652Z,44.10
2019-06-20T12:41:45.577Z,44.00
2019-06-20T12:44:16.479Z,38.40
2019-06-20T12:46:45.514Z,37.00
2019-06-20T12:49:14.310Z,36.00
2019-06-20T12:51:43.102Z,34.10
2019-06-20T12:54:11.927Z,36.10
2019-06-20T12:56:41.839Z,36.30
2019-06-20T12:59:10.826Z,38.00
2019-06-20T13:01:44.219Z,39.10
2019-06-20T13:04:10.190Z,41.10
2019-06-20T13:06:40.484Z,41.30
2019-06-20T13:09:09.572Z,41.80
2019-06-20T13:11:39.421Z,43.00
2019-06-20T13:14:09.007Z,41.80
2019-06-20T13:16:38.876Z,39.40
2019-06-20T13:19:07.843Z,40.30
2019-06-20T13:21:38.775Z,41.80
2019-06-20T13:24:07.573Z,42.30
2019-06-20T13:26:36.479Z,44.30
2019-06-20T13:29:05.460Z,46.00
2019-06-20T13:31:34.238Z,46.90
2019-06-20T13:34:03.054Z,48.80
2019-06-20T13:36:32.052Z,49.60
2019-06-20T13:39:00.887Z,50.40
2019-06-20T13:41:29.794Z,51.40
2019-06-20T13:43:58.616Z,50.40
2019-06-20T13:46:27.446Z,51.00
2019-06-20T13:48:56.374Z,53.10
2019-06-20T13:51:25.330Z,52.60
2019-06-20T13:53:54.228Z,52.50
2019-06-20T13:56:23.144Z,53.10
2019-06-20T13:58:51.966Z,53.20
2019-06-20T14:01:20.983Z,50.30
2019-06-20T14:03:50.823Z,49.80
2019-06-20T14:06:19.833Z,49.20
2019-06-20T14:08:50.273Z,49.30
2019-06-20T14:11:19.387Z,47.70
2019-06-20T14:13:50.233Z,46.90
2019-06-20T14:16:18.787Z,47.10
2019-06-20T14:18:47.586Z,48.50
2019-06-20T14:21:16.536Z,47.90
2019-06-20T14:23:46.195Z,49.10
2019-06-20T14:26:15.276Z,50.40
2019-06-20T14:28:44.348Z,51.90
2019-06-20T14:31:13.152Z,52.80
2019-06-20T14:33:43.054Z,53.20
2019-06-20T14:36:12.506Z,54.20
2019-06-20T14:38:41.313Z,55.20
2019-06-20T14:41:10.262Z,55.60
2019-06-20T14:43:39.211Z,56.50
2019-06-20T14:46:08.111Z,57.60
2019-06-20T14:48:37.044Z,58.50
2019-06-20T14:51:05.902Z,59.70
2019-06-20T14:53:34.867Z,61.10
2019-06-20T14:56:04.092Z,62.60
2019-06-20T14:58:32.890Z,64.50
2019-06-20T15:01:01.888Z,66.20
2019-06-20T15:03:30.643Z,69.10
2019-06-20T15:05:59.537Z,76.00
2019-06-20T15:08:28.300Z,71.10
2019-06-20T15:10:57.268Z,72.70
2019-06-20T15:13:26.084Z,78.00
2019-06-20T15:15:55.605Z,77.40
2019-06-20T15:18:24.655Z,80.10
2019-06-20T15:20:57.836Z,83.10
2019-06-20T15:23:24.327Z,81.40
2019-06-20T15:25:54.211Z,82.20
2019-06-20T15:28:23.275Z,81.60
2019-06-20T15:30:52.695Z,79.60
2019-06-20T15:33:21.930Z,80.20
2019-06-20T15:35:52.962Z,80.70
2019-06-20T15:38:21.633Z,77.80
2019-06-20T15:40:51.593Z,80.40
2019-06-20T15:43:20.590Z,80.60
2019-06-20T15:45:50.222Z,78.60
2019-06-20T15:48:19.702Z,78.70
2019-06-20T15:50:48.761Z,81.30
2019-06-20T15:53:17.655Z,82.50
2019-06-20T15:55:46.526Z,82.20
2019-06-20T15:58:15.394Z,82.80
2019-06-20T16:00:44.262Z,87.40
2019-06-20T16:03:14.674Z,85.40
2019-06-20T16:05:43.887Z,87.40
2019-06-20T16:08:12.697Z,89.40
2019-06-20T16:10:41.663Z,88.20
2019-06-20T16:13:10.454Z,89.00
2019-06-20T16:15:39.585Z,90.00
2019-06-20T16:18:08.437Z,91.00
2019-06-20T16:20:37.331Z,91.50
2019-06-20T16:23:06.268Z,91.70
2019-06-20T16:25:35.166Z,91.40
2019-06-20T16:28:04.390Z,91.90
2019-06-20T16:30:33.821Z,91.90
2019-06-20T16:33:02.943Z,92.10
2019-06-20T16:35:31.821Z,94.70
2019-06-20T16:39:09.363Z,95.80
2019-06-20T16:41:38.307Z,95.10
2019-06-20T16:44:07.242Z,96.30
2019-06-20T16:46:36.169Z,96.00
2019-06-20T16:49:05.105Z,95.00
2019-06-20T16:51:33.878Z,94.20
2019-06-20T16:54:02.664Z,99.70
2019-06-20T16:56:31.507Z,96.40
2019-06-20T16:59:00.284Z,95.00
2019-06-20T17:01:29.084Z,92.90
2019-06-20T17:03:57.975Z,93.80
2019-06-20T17:06:27.130Z,93.00
2019-06-20T17:08:55.971Z,91.40
2019-06-20T17:11:24.897Z,90.20
2019-06-20T17:13:53.925Z,85.90
2019-06-20T17:16:22.962Z,84.00
2019-06-20T17:18:51.906Z,82.00
2019-06-20T17:21:20.770Z,81.10
2019-06-20T17:23:49.551Z,81.00
2019-06-20T17:26:18.436Z,81.70
2019-06-20T17:28:47.298Z,80.70
2019-06-20T17:31:16.137Z,79.90
2019-06-20T17:33:57.064Z,79.40
2019-06-20T17:36:18.510Z,80.90
2019-06-20T17:38:46.155Z,84.10
2019-06-20T17:41:15.098Z,85.40
2019-06-20T17:43:44.586Z,86.60
2019-06-20T17:46:13.368Z,87.60
2019-06-20T17:48:42.130Z,90.70
2019-06-20T17:51:10.933Z,91.70
2019-06-20T17:53:39.731Z,93.30
2019-06-20T17:56:08.602Z,94.50
2019-06-20T17:58:37.466Z,94.40
2019-06-20T18:01:06.609Z,95.00
2019-06-20T18:03:35.657Z,94.60
2019-06-20T18:06:04.610Z,96.00
2019-06-20T18:08:33.547Z,96.60
2019-06-20T18:11:02.499Z,97.10
2019-06-20T18:13:31.356Z,97.40
2019-06-20T18:16:00.410Z,98.30
2019-06-20T18:18:29.177Z,98.70
2019-06-20T18:20:57.945Z,99.90
2019-06-20T18:23:26.739Z,99.90
2019-06-20T18:25:55.609Z,99.90
2019-06-20T18:28:24.364Z,99.90
2019-06-20T18:30:53.166Z,99.90
2019-06-20T18:33:22.033Z,99.90
2019-06-20T18:35:51.228Z,99.90
2019-06-20T18:38:20.135Z,99.90
2019-06-20T18:40:49.097Z,99.90
2019-06-20T18:43:18.107Z,99.90
2019-06-20T18:45:46.967Z,99.90
2019-06-20T18:48:15.764Z,99.90
2019-06-20T18:50:44.636Z,99.90
2019-06-20T18:53:14.991Z,99.90
2019-06-20T18:55:43.914Z,99.90
2019-06-20T18:58:12.942Z,99.90
2019-06-20T19:00:42.147Z,99.90
2019-06-20T19:03:10.985Z,99.90
2019-06-20T19:05:39.984Z,99.90
2019-06-20T19:08:08.770Z,99.90
2019-06-20T19:10:37.703Z,99.90
2019-06-20T19:13:06.759Z,99.90
2019-06-20T19:15:35.750Z,99.90
2019-06-20T19:18:16.321Z,99.90
2019-06-20T19:20:45.253Z,99.90
2019-06-20T19:23:14.019Z,99.90
2019-06-20T19:25:42.963Z,99.90
2019-06-20T19:28:11.776Z,99.90
2019-06-20T19:30:46.481Z,99.90
2019-06-20T19:33:15.647Z,99.90
2019-06-20T19:35:44.677Z,99.90
2019-06-20T19:38:13.624Z,99.90
2019-06-20T19:40:45.615Z,99.90
2019-06-20T19:43:15.524Z,99.90
2019-06-20T19:45:44.622Z,99.90
2019-06-20T19:48:14.545Z,99.90
2019-06-20T19:50:43.629Z,99.90
2019-06-20T19:53:12.837Z,99.90
2019-06-20T19:55:42.104Z,99.90
2019-06-20T19:58:11.211Z,99.90
2019-06-20T20:00:40.067Z,99.90
2019-06-20T20:03:09.332Z,99.90
2019-06-20T20:05:38.285Z,99.90
2019-06-20T20:08:07.302Z,99.90
2019-06-20T20:10:43.686Z,99.90
2019-06-20T20:13:15.353Z,99.90
2019-06-20T20:15:44.140Z,99.90
2019-06-20T20:18:13.367Z,99.90
2019-06-20T20:20:42.171Z,99.90
2019-06-20T20:23:10.966Z,99.90
2019-06-20T20:25:39.995Z,99.90
2019-06-20T20:28:08.830Z,99.90
2019-06-20T20:30:37.687Z,99.90
2019-06-20T20:33:06.587Z,99.90
2019-06-20T20:35:36.164Z,99.90
2019-06-20T20:38:05.458Z,99.90
2019-06-20T20:40:34.628Z,99.90
2019-06-20T20:43:03.404Z,99.90
2019-06-20T20:45:32.270Z,99.90
2019-06-20T20:48:01.257Z,99.90
2019-06-20T20:50:30.104Z,99.90
2019-06-20T20:52:58.988Z,99.90
2019-06-20T20:55:27.868Z,99.90
2019-06-20T20:57:56.673Z,99.90
2019-06-20T21:00:27.307Z,99.90
2019-06-20T21:02:56.255Z,99.90
2019-06-20T21:05:25.189Z,99.90
2019-06-20T21:07:54.123Z,99.90
2019-06-20T21:10:23.291Z,99.90
2019-06-20T21:12:52.304Z,99.90
2019-06-20T21:15:21.584Z,99.90
2019-06-20T21:17:50.392Z,99.90
2019-06-20T21:20:19.837Z,99.90
2019-06-20T21:22:48.971Z,99.90
2019-06-20T21:25:19.632Z,99.90
2019-06-20T21:27:48.422Z,99.90
2019-06-20T21:30:17.452Z,99.90
2019-06-20T21:32:46.259Z,99.90
2019-06-20T21:35:15.447Z,99.90
2019-06-20T21:37:44.292Z,99.90
2019-06-20T21:40:13.266Z,99.90
2019-06-20T21:42:42.094Z,99.90
2019-06-20T21:45:11.434Z,99.90
2019-06-20T21:47:40.316Z,99.90
2019-06-20T21:50:09.601Z,99.90
2019-06-20T21:52:38.488Z,99.90
2019-06-20T21:55:07.680Z,99.90
2019-06-20T21:57:36.617Z,99.90
2019-06-20T22:00:11.460Z,99.90
2019-06-20T22:02:40.474Z,99.90
2019-06-20T22:05:10.022Z,99.90
2019-06-20T22:07:38.976Z,99.90
2019-06-20T22:10:08.198Z,99.90
2019-06-20T22:12:37.057Z,99.90
2019-06-20T22:15:07.086Z,99.90
2019-06-20T22:17:36.052Z,99.90
2019-06-20T22:20:05.943Z,99.90
2019-06-20T22:22:34.818Z,99.90
2019-06-20T22:25:04.214Z,99.90
2019-06-20T22:27:33.128Z,99.90
2019-06-20T22:30:03.783Z,99.90
2019-06-20T22:32:32.698Z,99.90
2019-06-20T22:35:01.486Z,99.90
2019-06-20T22:37:30.412Z,99.90
2019-06-20T22:39:59.502Z,99.90
2019-06-20T22:42:28.570Z,99.90
2019-06-20T22:44:58.686Z,99.90
2019-06-20T22:47:27.576Z,99.90
2019-06-20T22:49:56.387Z,99.90
2019-06-20T22:52:25.411Z,99.90
2019-06-20T22:54:54.519Z,99.90
2019-06-20T22:57:23.457Z,99.90
2019-06-20T22:59:52.311Z,99.90
2019-06-20T23:02:21.162Z,99.90
2019-06-20T23:04:49.939Z,99.90
2019-06-20T23:07:18.847Z,99.90
2019-06-20T23:09:47.720Z,99.90
2019-06-20T23:12:16.604Z,99.90
2019-06-20T23:14:45.418Z,99.90
2019-06-20T23:17:14.211Z,99.90
2019-06-20T23:19:43.071Z,99.90
2019-06-20T23:22:11.896Z,99.90
2019-06-20T23:24:40.670Z,99.90
2019-06-20T23:27:09.530Z,99.90
2019-06-20T23:29:38.751Z,99.90
2019-06-20T23:32:07.621Z,99.90
2019-06-20T23:34:36.430Z,99.90
2019-06-20T23:37:12.716Z,99.90
2019-06-20T23:39:35.880Z,99.90
2019-06-20T23:42:04.647Z,99.90
2019-06-20T23:44:33.515Z,99.90
2019-06-20T23:47:02.394Z,99.90
2019-06-20T23:49:31.173Z,99.90
2019-06-20T23:52:05.076Z,99.90
2019-06-20T23:54:34.871Z,99.90
2019-06-20T23:57:03.667Z,99.90
2019-06-20T23:59:32.552Z,99.90
